createdAt,value
2023-01-30T00:10:34.322Z,13.7
2023-01-30T00:26:08.205Z,11.6
2023-01-30T00:41:42.116Z,15.3
2023-01-30T00:57:15.794Z,11.3
2023-01-30T01:12:49.767Z,16.3
2023-01-30T01:28:23.948Z,13.9
2023-01-30T01:43:58.127Z,15.5
2023-01-30T01:59:32.357Z,12.4
2023-01-30T02:15:06.562Z,15.8
2023-01-30T02:30:40.978Z,11.8
2023-01-30T02:46:15.586Z,10.8
2023-01-30T03:01:50.033Z,13.3
2023-01-30T03:17:24.258Z,16.7
2023-01-30T03:32:58.443Z,40.1
2023-01-30T03:48:32.496Z,16
2023-01-30T04:04:06.857Z,11.7
2023-01-30T04:19:41.185Z,13.9
2023-01-30T04:35:15.987Z,14.2
2023-01-30T04:50:51.405Z,11.5
2023-01-30T05:06:25.726Z,10.6
2023-01-30T05:22:00.040Z,12.8
2023-01-30T05:37:34.139Z,10.2
2023-01-30T05:53:08.180Z,6.6
2023-01-30T06:08:42.587Z,5.1
2023-01-30T06:24:16.944Z,6
2023-01-30T06:39:51.288Z,6.2
2023-01-30T06:55:25.618Z,7.9
2023-01-30T07:10:59.990Z,4.9
2023-01-30T07:26:34.405Z,4.5
2023-01-30T07:42:08.834Z,2.3
2023-01-30T07:57:43.260Z,3.2
2023-01-30T08:13:17.587Z,3.8
2023-01-30T08:28:51.975Z,3.7
2023-01-30T08:44:26.346Z,1
2023-01-30T09:00:00.723Z,1.6
2023-01-30T09:15:35.141Z,1.3
2023-01-30T09:31:09.975Z,1.6
2023-01-30T09:46:45.056Z,4.5
2023-01-30T10:02:19.447Z,2.2
2023-01-30T10:17:53.990Z,2.4
2023-01-30T10:33:28.525Z,2.8
2023-01-30T10:49:12.439Z,4.5
2023-01-30T11:04:47.542Z,3.5
2023-01-30T11:20:22.459Z,2.8
2023-01-30T11:35:56.915Z,2.4
2023-01-30T11:51:31.350Z,2.9
2023-01-30T12:07:06.226Z,6
2023-01-30T12:22:40.659Z,4.2
2023-01-30T12:38:15.203Z,1.8
2023-01-30T12:53:49.565Z,2.8
2023-01-30T13:09:23.983Z,7.1
2023-01-30T13:24:58.372Z,2.5
2023-01-30T13:40:32.879Z,1.9
2023-01-30T13:56:40.608Z,2.7
2023-01-30T14:12:17.087Z,7
2023-01-30T14:27:51.492Z,9.1
2023-01-30T14:43:26.029Z,1.9
2023-01-30T14:59:00.507Z,6.9
2023-01-30T15:14:34.927Z,9.2
2023-01-30T15:30:09.348Z,2.3
2023-01-30T15:45:44.296Z,14.6
2023-01-30T16:01:19.114Z,11.3
2023-01-30T16:16:53.933Z,8.4
2023-01-30T16:32:28.721Z,4.5
2023-01-30T16:48:06.035Z,5.1
2023-01-30T17:03:40.664Z,8.1
2023-01-30T17:19:15.259Z,7.9
2023-01-30T17:34:49.626Z,6.1
2023-01-30T17:50:23.990Z,9.6
2023-01-30T18:05:58.361Z,6
2023-01-30T18:21:32.845Z,8
2023-01-30T18:37:07.259Z,6.4
2023-01-30T18:52:41.616Z,7.4
2023-01-30T19:08:16.019Z,8.6
2023-01-30T19:23:50.924Z,4
2023-01-30T19:39:26.168Z,4.5
2023-01-30T19:55:00.555Z,5.6
2023-01-30T20:10:34.657Z,3.2
2023-01-30T20:26:09.046Z,12.8
2023-01-30T20:41:43.582Z,5.1
2023-01-30T20:57:18.074Z,10.4
2023-01-30T21:12:52.455Z,11.1
2023-01-30T21:28:26.838Z,9.2
2023-01-30T21:44:01.228Z,7.7
2023-01-30T21:59:35.661Z,3.2
2023-01-30T22:15:10.863Z,10.9
2023-01-30T22:30:45.395Z,10.7
2023-01-30T22:46:19.801Z,4.4
2023-01-30T23:01:54.147Z,3.9
2023-01-30T23:17:28.713Z,8.5
2023-01-30T23:33:03.092Z,5
2023-01-30T23:48:38.591Z,3.4
